createdAt,value
2019-01-06T00:02:11.555Z,0.90
2019-01-06T00:04:58.024Z,0.90
2019-01-06T00:08:05.112Z,0.80
2019-01-06T00:10:35.238Z,0.80
2019-01-06T00:13:22.877Z,0.80
2019-01-06T00:16:29.891Z,0.80
2019-01-06T00:19:36.872Z,0.80
2019-01-06T00:25:02.249Z,0.80
2019-01-06T00:28:09.253Z,0.80
2019-01-06T00:31:16.261Z,0.80
2019-01-06T00:36:58.769Z,0.80
2019-01-06T00:40:05.836Z,0.80
2019-01-06T00:43:12.885Z,0.80
2019-01-06T00:45:51.843Z,0.80
2019-01-06T00:48:24.800Z,0.80
2019-01-06T00:51:07.065Z,0.80
2019-01-06T00:53:37.408Z,0.80
2019-01-06T00:56:07.506Z,0.80
2019-01-06T01:02:09.472Z,0.80
2019-01-06T01:05:16.482Z,0.80
2019-01-06T01:08:06.418Z,0.80
2019-01-06T01:11:14.417Z,0.80
2019-01-06T01:14:21.466Z,0.80
2019-01-06T01:19:49.007Z,0.90
2019-01-06T01:22:19.105Z,0.80
2019-01-06T01:25:01.101Z,0.80
2019-01-06T01:28:08.124Z,0.80
2019-01-06T01:31:15.117Z,0.90
2019-01-06T01:34:22.401Z,0.80
2019-01-06T01:37:02.501Z,0.80
2019-01-06T01:40:09.594Z,0.80
2019-01-06T01:42:42.394Z,0.90
2019-01-06T01:48:47.930Z,0.90
2019-01-06T01:51:23.732Z,0.90
2019-01-06T01:57:22.533Z,0.90
2019-01-06T01:59:52.722Z,0.90
2019-01-06T02:02:25.557Z,0.90
2019-01-06T02:05:32.539Z,0.90
2019-01-06T02:08:20.218Z,0.90
2019-01-06T02:11:27.202Z,0.90
2019-01-06T02:17:29.094Z,0.90
2019-01-06T02:23:44.605Z,0.90
2019-01-06T02:26:51.615Z,0.90
2019-01-06T02:29:39.359Z,0.90
2019-01-06T02:32:46.374Z,0.90
2019-01-06T02:35:16.548Z,0.90
2019-01-06T02:38:23.563Z,0.90
2019-01-06T02:44:25.509Z,0.90
2019-01-06T02:47:01.206Z,0.90
2019-01-06T02:55:32.796Z,0.90
2019-01-06T02:58:02.888Z,0.90
2019-01-06T03:00:35.423Z,0.90
2019-01-06T03:06:40.713Z,0.90
2019-01-06T03:09:19.968Z,0.90
2019-01-06T03:12:26.988Z,0.90
2019-01-06T03:15:34.205Z,0.90
2019-01-06T03:18:04.296Z,0.90
2019-01-06T03:21:11.317Z,0.90
2019-01-06T03:24:18.384Z,0.90
2019-01-06T03:27:25.656Z,0.90
2019-01-06T03:33:41.472Z,0.90
2019-01-06T03:36:48.443Z,0.90
2019-01-06T03:39:34.619Z,0.90
2019-01-06T03:42:41.599Z,0.90
2019-01-06T03:45:17.447Z,0.90
2019-01-06T03:48:02.118Z,0.90
2019-01-06T03:50:41.077Z,0.80
2019-01-06T03:53:48.062Z,0.80
2019-01-06T03:59:50.386Z,0.80
2019-01-06T04:05:49.065Z,0.90
2019-01-06T04:08:48.514Z,0.80
2019-01-06T04:11:24.748Z,0.80
2019-01-06T04:14:31.768Z,0.90
2019-01-06T04:17:38.754Z,0.90
2019-01-06T04:20:45.769Z,0.80
2019-01-06T04:23:52.755Z,0.90
2019-01-06T04:29:29.404Z,0.80
2019-01-06T04:32:36.391Z,0.80
2019-01-06T04:38:41.992Z,0.80
2019-01-06T04:41:49.040Z,0.80
2019-01-06T04:44:56.129Z,0.80
2019-01-06T04:47:44.331Z,0.80
2019-01-06T04:50:17.371Z,0.80
2019-01-06T04:56:33.158Z,0.80
2019-01-06T04:59:40.206Z,0.80
2019-01-06T05:02:47.298Z,0.80
2019-01-06T05:05:54.367Z,0.80
2019-01-06T05:09:01.386Z,0.80
2019-01-06T05:14:39.650Z,0.80
2019-01-06T05:17:09.728Z,0.80
2019-01-06T05:19:42.571Z,0.80
2019-01-06T05:22:30.602Z,0.80
2019-01-06T05:25:06.906Z,0.80
2019-01-06T05:28:13.893Z,0.80
2019-01-06T05:31:20.956Z,0.80
2019-01-06T05:34:27.940Z,0.80
2019-01-06T05:37:00.964Z,0.80
2019-01-06T05:39:39.605Z,0.80
2019-01-06T05:42:39.081Z,0.80
2019-01-06T05:45:24.053Z,0.80
2019-01-06T05:47:59.805Z,0.80
2019-01-06T05:53:53.504Z,0.80
2019-01-06T05:57:00.554Z,0.80
2019-01-06T05:59:48.323Z,0.80
2019-01-06T06:02:55.301Z,0.80
2019-01-06T06:05:25.706Z,0.80
2019-01-06T06:08:11.842Z,0.80
2019-01-06T06:10:44.686Z,0.80
2019-01-06T06:13:29.674Z,0.80
2019-01-06T06:16:17.794Z,0.80
2019-01-06T06:19:02.540Z,0.80
2019-01-06T06:21:32.868Z,0.80
2019-01-06T06:27:48.462Z,0.80
2019-01-06T06:30:18.621Z,0.80
2019-01-06T06:39:22.391Z,0.80
2019-01-06T06:41:52.476Z,0.80
2019-01-06T06:44:34.765Z,0.90
2019-01-06T06:47:04.889Z,0.80
2019-01-06T06:49:52.574Z,0.80
2019-01-06T06:52:59.606Z,0.80
2019-01-06T06:55:47.356Z,0.80
2019-01-06T06:58:33.768Z,0.80
2019-01-06T07:01:42.311Z,0.80
2019-01-06T07:10:18.460Z,0.80
2019-01-06T07:12:48.641Z,0.80
2019-01-06T07:15:24.911Z,0.80
2019-01-06T07:17:57.736Z,0.80
2019-01-06T07:20:46.698Z,0.80
2019-01-06T07:23:53.687Z,0.80
2019-01-06T07:26:41.428Z,0.80
2019-01-06T07:29:48.410Z,0.80
2019-01-06T07:32:55.412Z,0.80
2019-01-06T07:39:10.936Z,0.80
2019-01-06T07:41:56.043Z,0.80
2019-01-06T07:44:41.399Z,0.80
2019-01-06T07:47:29.126Z,0.80
2019-01-06T07:50:15.305Z,0.80
2019-01-06T07:53:22.306Z,0.80
2019-01-06T07:56:01.656Z,0.80
2019-01-06T08:01:40.300Z,0.80
2019-01-06T08:04:13.217Z,0.80
2019-01-06T08:07:00.961Z,0.80
2019-01-06T08:16:11.407Z,0.90
2019-01-06T08:18:41.585Z,0.90
2019-01-06T08:21:48.619Z,0.90
2019-01-06T08:24:55.709Z,0.90
2019-01-06T08:28:02.723Z,0.90
2019-01-06T08:31:09.699Z,0.90
2019-01-06T08:34:16.793Z,0.90
2019-01-06T08:40:07.368Z,0.90
2019-01-06T08:42:49.536Z,0.90
2019-01-06T08:45:19.622Z,0.90
2019-01-06T08:48:26.637Z,0.90
2019-01-06T08:57:33.728Z,0.90
2019-01-06T09:00:03.886Z,0.90
2019-01-06T09:02:45.870Z,0.90
2019-01-06T09:05:16.061Z,0.90
2019-01-06T09:08:23.054Z,0.90
2019-01-06T09:11:30.145Z,1.00
2019-01-06T09:14:16.337Z,0.90
2019-01-06T09:16:49.223Z,1.00
2019-01-06T09:19:56.557Z,1.60
2019-01-06T09:23:03.659Z,1.50
2019-01-06T09:25:41.188Z,1.50
2019-01-06T09:31:43.182Z,1.30
2019-01-06T09:34:50.195Z,1.40
2019-01-06T09:37:57.331Z,1.90
2019-01-06T09:41:04.415Z,1.80
2019-01-06T09:43:37.521Z,1.70
2019-01-06T09:46:44.530Z,1.60
2019-01-06T09:49:51.569Z,1.50
2019-01-06T09:52:58.956Z,1.50
2019-01-06T09:55:29.206Z,1.40
2019-01-06T09:58:36.247Z,1.30
2019-01-06T10:01:06.399Z,1.30
2019-01-06T10:03:52.967Z,1.30
2019-01-06T10:06:59.964Z,1.30
2019-01-06T10:09:30.157Z,1.30
2019-01-06T10:12:00.337Z,1.20
2019-01-06T10:14:30.427Z,1.20
2019-01-06T10:17:37.447Z,1.20
2019-01-06T10:20:09.923Z,1.20
2019-01-06T10:23:16.936Z,1.20
2019-01-06T10:25:55.552Z,1.20
2019-01-06T10:31:20.744Z,1.20
2019-01-06T10:34:27.725Z,1.20
2019-01-06T10:37:16.034Z,1.30
2019-01-06T10:40:24.322Z,1.30
2019-01-06T10:43:31.329Z,1.30
2019-01-06T10:46:38.665Z,1.30
2019-01-06T10:49:24.829Z,1.30
2019-01-06T10:52:31.844Z,1.30
2019-01-06T10:55:38.856Z,1.20
2019-01-06T10:58:45.855Z,1.20
2019-01-06T11:01:19.230Z,1.20
2019-01-06T11:03:49.339Z,1.20
2019-01-06T11:06:19.523Z,1.20
2019-01-06T11:09:26.618Z,1.20
2019-01-06T11:11:59.304Z,1.20
2019-01-06T11:14:29.464Z,1.20
2019-01-06T11:17:08.514Z,1.20
2019-01-06T11:20:15.509Z,1.20
2019-01-06T11:26:14.901Z,1.20
2019-01-06T11:28:45.056Z,1.20
2019-01-06T11:31:27.783Z,1.20
2019-01-06T11:34:13.936Z,1.20
2019-01-06T11:36:44.301Z,1.20
2019-01-06T11:45:31.863Z,1.20
2019-01-06T11:48:19.540Z,1.20
2019-01-06T11:51:26.561Z,1.30
2019-01-06T11:54:33.680Z,1.30
2019-01-06T11:57:40.704Z,1.30
2019-01-06T12:00:47.689Z,1.20
2019-01-06T12:03:21.136Z,1.20
2019-01-06T12:06:28.116Z,1.20
2019-01-06T12:09:35.141Z,1.20
2019-01-06T12:12:42.123Z,1.20
2019-01-06T12:18:47.709Z,1.30
2019-01-06T12:21:54.790Z,1.30
2019-01-06T12:24:30.772Z,1.30
2019-01-06T12:27:37.773Z,1.30
2019-01-06T12:30:14.394Z,1.30
2019-01-06T12:33:00.724Z,1.30
2019-01-06T12:35:47.161Z,1.30
2019-01-06T12:38:32.634Z,1.30
2019-01-06T12:41:32.813Z,1.30
2019-01-06T12:44:32.849Z,1.30
2019-01-06T12:47:18.755Z,1.30
2019-01-06T12:53:40.548Z,1.30
2019-01-06T12:56:47.688Z,1.30
2019-01-06T12:59:17.812Z,1.30
2019-01-06T13:02:24.943Z,1.40
2019-01-06T13:05:32.052Z,1.40
2019-01-06T13:08:39.125Z,1.40
2019-01-06T13:11:46.184Z,1.40
2019-01-06T13:14:32.266Z,1.40
2019-01-06T13:17:39.258Z,1.40
2019-01-06T13:20:46.272Z,1.30
2019-01-06T13:23:25.351Z,1.30
2019-01-06T13:25:58.681Z,1.30
2019-01-06T13:29:05.783Z,1.30
2019-01-06T13:32:12.835Z,1.30
2019-01-06T13:35:19.824Z,1.30
2019-01-06T13:38:26.906Z,1.30
2019-01-06T13:41:33.929Z,1.30
2019-01-06T13:44:07.078Z,1.30
2019-01-06T13:46:46.210Z,1.30
2019-01-06T13:49:34.233Z,1.30
2019-01-06T13:52:10.139Z,1.30
2019-01-06T13:54:46.240Z,1.30
2019-01-06T13:57:16.337Z,1.30
2019-01-06T14:00:04.261Z,1.30
2019-01-06T14:03:11.257Z,1.30
2019-01-06T14:06:18.335Z,1.30
2019-01-06T14:08:51.179Z,1.30
2019-01-06T14:14:36.350Z,1.60
2019-01-06T14:17:22.816Z,1.60
2019-01-06T14:20:29.854Z,1.70
2019-01-06T14:23:36.858Z,1.70
2019-01-06T14:29:50.787Z,1.60
2019-01-06T14:32:23.713Z,1.50
2019-01-06T14:35:30.718Z,1.50
2019-01-06T14:38:06.594Z,1.50
2019-01-06T14:44:22.108Z,1.40
2019-01-06T14:47:29.104Z,1.40
2019-01-06T14:50:15.271Z,1.40
2019-01-06T14:52:45.391Z,1.40
2019-01-06T14:55:52.704Z,1.40
2019-01-06T15:01:40.383Z,1.40
2019-01-06T15:04:10.481Z,1.40
2019-01-06T15:13:06.993Z,1.40
2019-01-06T15:15:49.207Z,1.40
2019-01-06T15:18:56.313Z,1.40
2019-01-06T15:25:08.747Z,1.40
2019-01-06T15:27:38.879Z,1.60
2019-01-06T15:30:18.832Z,1.50
2019-01-06T15:32:54.937Z,1.50
2019-01-06T15:35:40.828Z,1.40
2019-01-06T15:38:10.937Z,1.40
2019-01-06T15:40:47.030Z,1.40
2019-01-06T15:43:54.026Z,1.40
2019-01-06T15:47:01.123Z,1.30
2019-01-06T15:49:34.880Z,1.30
2019-01-06T15:52:41.909Z,1.30
2019-01-06T15:55:27.855Z,1.30
2019-01-06T15:58:09.754Z,1.30
2019-01-06T16:00:55.946Z,1.40
2019-01-06T16:03:29.090Z,1.40
2019-01-06T16:09:34.542Z,1.40
2019-01-06T16:15:33.799Z,1.40
2019-01-06T16:18:40.798Z,1.40
2019-01-06T16:21:13.924Z,1.40
2019-01-06T16:23:44.055Z,1.40
2019-01-06T16:26:51.031Z,1.40
2019-01-06T16:29:30.060Z,1.40
2019-01-06T16:32:00.155Z,1.40
2019-01-06T16:34:42.566Z,1.40
2019-01-06T16:37:21.372Z,1.40
2019-01-06T16:40:09.555Z,1.40
2019-01-06T16:43:09.853Z,1.40
2019-01-06T16:45:40.050Z,1.40
2019-01-06T16:48:18.849Z,1.40
2019-01-06T16:51:03.807Z,1.40
2019-01-06T16:53:36.875Z,1.40
2019-01-06T16:56:18.705Z,1.40
2019-01-06T17:02:06.111Z,1.30
2019-01-06T17:04:36.978Z,1.30
2019-01-06T17:10:35.993Z,1.30
2019-01-06T17:13:42.998Z,1.30
2019-01-06T17:19:48.513Z,1.30
2019-01-06T17:22:55.500Z,1.30
2019-01-06T17:28:57.135Z,1.30
2019-01-06T17:32:04.122Z,1.30
2019-01-06T17:41:04.480Z,1.30
2019-01-06T17:44:11.455Z,1.20
2019-01-06T17:47:18.552Z,1.20
2019-01-06T17:50:04.796Z,1.30
2019-01-06T17:52:40.387Z,1.30
2019-01-06T17:55:25.353Z,1.30
2019-01-06T17:57:58.441Z,1.20
2019-01-06T18:00:28.816Z,1.20
2019-01-06T18:03:01.709Z,1.10
2019-01-06T18:06:08.717Z,1.10
2019-01-06T18:09:15.687Z,1.10
2019-01-06T18:11:47.726Z,1.00
2019-01-06T18:14:17.997Z,1.00
2019-01-06T18:19:59.252Z,1.10
2019-01-06T18:22:36.261Z,1.10
2019-01-06T18:25:15.893Z,1.00
2019-01-06T18:27:55.142Z,1.10
2019-01-06T18:31:02.350Z,1.00
2019-01-06T18:34:09.350Z,1.00
2019-01-06T18:36:55.942Z,1.00
2019-01-06T18:39:43.590Z,1.00
2019-01-06T18:45:18.102Z,1.10
2019-01-06T18:47:56.792Z,1.10
2019-01-06T18:50:29.665Z,1.10
2019-01-06T18:53:14.708Z,1.10
2019-01-06T18:55:44.823Z,1.10
2019-01-06T18:58:26.903Z,1.10
2019-01-06T19:01:34.432Z,1.10
2019-01-06T19:04:41.519Z,1.10
2019-01-06T19:07:48.549Z,1.10
2019-01-06T19:10:34.756Z,1.10
2019-01-06T19:13:41.794Z,1.10
2019-01-06T19:16:14.917Z,1.10
2019-01-06T19:19:22.025Z,1.10
2019-01-06T19:22:08.468Z,1.10
2019-01-06T19:24:41.301Z,1.10
2019-01-06T19:27:48.315Z,1.10
2019-01-06T19:30:34.508Z,1.00
2019-01-06T19:33:41.667Z,1.00
2019-01-06T19:36:48.665Z,1.00
2019-01-06T19:39:24.559Z,1.00
2019-01-06T19:42:12.447Z,1.00
2019-01-06T19:44:58.507Z,1.10
2019-01-06T19:47:31.324Z,1.00
2019-01-06T19:50:38.360Z,1.00
2019-01-06T19:53:45.416Z,1.10
2019-01-06T19:56:15.818Z,1.00
2019-01-06T19:58:45.911Z,1.00
2019-01-06T20:01:16.030Z,1.00
2019-01-06T20:03:52.885Z,1.00
2019-01-06T20:06:59.954Z,1.00
2019-01-06T20:12:41.671Z,1.00
2019-01-06T20:15:11.775Z,1.00
2019-01-06T20:18:18.861Z,1.00
2019-01-06T20:21:05.304Z,1.10
2019-01-06T20:23:35.413Z,1.10
2019-01-06T20:26:11.004Z,1.10
2019-01-06T20:31:55.084Z,1.10
2019-01-06T20:34:27.929Z,1.10
2019-01-06T20:37:34.956Z,1.10
2019-01-06T20:40:21.814Z,1.10
2019-01-06T20:43:29.059Z,1.10
2019-01-06T20:46:36.042Z,1.20
2019-01-06T20:49:21.290Z,1.10
2019-01-06T20:52:28.434Z,1.20
2019-01-06T20:55:35.512Z,1.20
2019-01-06T20:58:23.148Z,1.20
2019-01-06T21:00:53.263Z,1.20
2019-01-06T21:04:00.249Z,1.20
2019-01-06T21:06:33.408Z,1.20
2019-01-06T21:09:40.427Z,1.20
2019-01-06T21:12:10.535Z,1.20
2019-01-06T21:14:55.269Z,1.20
2019-01-06T21:17:25.352Z,1.20
2019-01-06T21:23:27.259Z,1.20
2019-01-06T21:29:22.591Z,1.30
2019-01-06T21:32:04.805Z,1.30
2019-01-06T21:34:51.253Z,1.30
2019-01-06T21:37:37.642Z,1.30
2019-01-06T21:40:24.217Z,1.30
2019-01-06T21:42:57.090Z,1.30
2019-01-06T21:45:43.688Z,1.30
2019-01-06T21:48:13.785Z,1.30
2019-01-06T21:50:43.893Z,1.30
2019-01-06T21:53:26.225Z,1.30
2019-01-06T21:56:33.219Z,1.30
2019-01-06T21:59:40.477Z,1.30
2019-01-06T22:05:15.169Z,1.30
2019-01-06T22:07:45.239Z,1.30
2019-01-06T22:13:41.453Z,1.30
2019-01-06T22:16:11.588Z,1.40
2019-01-06T22:18:41.711Z,1.40
2019-01-06T22:21:48.696Z,1.40
2019-01-06T22:24:55.796Z,1.40
2019-01-06T22:30:54.005Z,1.40
2019-01-06T22:33:24.097Z,1.40
2019-01-06T22:36:02.898Z,1.30
2019-01-06T22:38:50.580Z,1.30
2019-01-06T22:41:57.562Z,1.30
2019-01-06T22:44:36.530Z,1.30
2019-01-06T22:47:24.620Z,1.30
2019-01-06T22:50:00.779Z,1.30
2019-01-06T22:53:08.084Z,1.30
2019-01-06T22:56:15.128Z,1.30
2019-01-06T22:59:22.207Z,1.30
2019-01-06T23:02:29.497Z,1.20
2019-01-06T23:05:11.431Z,1.20
2019-01-06T23:10:52.835Z,1.20
2019-01-06T23:16:55.591Z,1.20
2019-01-06T23:19:40.443Z,1.20
2019-01-06T23:22:25.505Z,1.20
2019-01-06T23:24:58.253Z,1.20
2019-01-06T23:27:31.020Z,1.20
2019-01-06T23:33:37.278Z,1.20
2019-01-06T23:36:23.151Z,1.20
2019-01-06T23:38:55.938Z,1.20
2019-01-06T23:42:02.965Z,1.20
2019-01-06T23:44:33.142Z,1.20
2019-01-06T23:47:40.123Z,1.20
2019-01-06T23:50:10.468Z,1.20
2019-01-06T23:53:17.442Z,1.20
2019-01-06T23:56:24.507Z,1.20
2019-01-06T23:59:31.492Z,1.30
